Time;durP1;ratioP1;P1;durP2;ratioP2;P2;SDS_P1;SDS_P2;PMS_P1;PMS_P2;Temp;Humidity;BMP_temperature;BMP_pressure;BME280_temperature;BME280_humidity;BME280_pressure;Samples;Min_cycle;Max_cycle;Signal;HPM_P1;HPM_P2
2022/04/10 00:01:07;;;;;;;;;;;;;;;;;;5057169;28;20012;-24
2022/04/10 00:03:34;;;;;;;;;;;;;;;;;;5056779;28;19919;-23
2022/04/10 00:06:02;;;;;;;;;;;;;;;;;;5057308;28;20363;-23
2022/04/10 00:08:30;;;;;;;;;;;;;;;;;;5056775;28;19999;-23
2022/04/10 00:10:58;;;;;;;;;;;;;;;;;;5056747;28;20409;-23
2022/04/10 00:13:25;;;;;;;;;;;;;;;;;;5056691;28;19908;-23
2022/04/10 00:15:52;;;;;;;;;;;;;;;;;;5057062;28;19960;-23
2022/04/10 00:18:19;;;;;;;;;;;;;;;;;;5038930;28;20359;-23
2022/04/10 00:20:46;;;;;;;;;;;;;;;;;;5038922;28;19917;-23
2022/04/10 00:23:13;;;;;;;;;;;;;;;;;;5056556;28;19940;-23
2022/04/10 00:25:40;;;;;;;;;;;;;;;;;;5056476;28;20300;-23
2022/04/10 00:28:08;;;;;;;;;;;;;;;;;;5056257;28;19924;-23
2022/04/10 00:30:34;;;;;;;;;;;;;;;;;;5056589;28;19917;-23
2022/04/10 00:33:02;;;;;;;;;;;;;;;;;;5056318;28;20043;-23
2022/04/10 00:35:29;;;;;;;;;;;;;;;;;;5056220;28;19924;-25
2022/04/10 00:37:55;;;;;;;;;;;;;;;;;;5056165;28;20017;-23
2022/04/10 00:40:22;;;;;;;;;;;;;;;;;;5056253;28;19913;-23
2022/04/10 00:42:49;;;;;;;;;;;;;;;;;;5056657;28;19917;-23
2022/04/10 00:45:17;;;;;;;;;;;;;;;;;;5038521;28;19913;-23
2022/04/10 00:47:45;;;;;;;;;;;;;;;;;;5038203;28;19916;-23
2022/04/10 00:50:12;;;;;;;;;;;;;;;;;;5056037;28;19909;-23
2022/04/10 00:52:39;;;;;;;;;;;;;;;;;;5056039;28;19913;-24
2022/04/10 00:55:06;;;;;;;;;;;;;;;;;;5055385;28;19917;-23
2022/04/10 00:57:33;;;;;;;;;;;;;;;;;;5055896;28;19967;-23
2022/04/10 01:00:00;;;;;;;;;;;;;;;;;;5056082;28;20298;-23
2022/04/10 01:02:27;;;;;;;;;;;;;;;;;;5038118;28;19978;-23
2022/04/10 01:04:55;;;;;;;;;;;;;;;;;;5055702;28;19916;-23
2022/04/10 01:07:22;;;;;;;;;;;;;;;;;;5037994;28;20358;-23
2022/04/10 01:09:49;;;;;;;;;;;;;;;;;;5055635;28;19912;-23
2022/04/10 01:12:17;;;;;;;;;;;;;;;;;;5055850;28;20069;-23
2022/04/10 01:14:44;;;;;;;;;;;;;;;;;;5055492;28;19920;-23
2022/04/10 01:17:11;;;;;;;;;;;;;;;;;;5055455;28;19944;-23
2022/04/10 01:19:38;;;;;;;;;;;;;;;;;;5055307;28;19931;-23
2022/04/10 01:22:04;;;;;;;;;;;;;;;;;;5055164;28;19917;-23
2022/04/10 01:24:32;;;;;;;;;;;;;;;;;;5037449;28;19913;-23
2022/04/10 01:26:59;;;;;;;;;;;;;;;;;;5055235;28;19913;-23
2022/04/10 01:29:28;;;;;;;;;;;;;;;;;;5037367;28;19927;-23
2022/04/10 01:31:54;;;;;;;;;;;;;;;;;;5055244;28;19969;-23
2022/04/10 01:34:21;;;;;;;;;;;;;;;;;;5055107;28;19913;-23
2022/04/10 01:36:48;;;;;;;;;;;;;;;;;;5055286;28;19924;-23
2022/04/10 01:39:17;;;;;;;;;;;;;;;;;;5037522;28;19909;-23
2022/04/10 01:41:46;;;;;;;;;;;;;;;;;;5037472;28;19985;-23
2022/04/10 01:44:13;;;;;;;;;;;;;;;;;;5055256;28;20047;-23
2022/04/10 01:46:40;;;;;;;;;;;;;;;;;;5054920;28;19920;-23
2022/04/10 01:49:07;;;;;;;;;;;;;;;;;;5054873;28;20269;-23
2022/04/10 01:51:35;;;;;;;;;;;;;;;;;;5055091;28;20000;-23
2022/04/10 01:54:02;;;;;;;;;;;;;;;;;;5054797;28;20425;-23
2022/04/10 01:56:29;;;;;;;;;;;;;;;;;;5055108;28;19974;-23
2022/04/10 01:58:55;;;;;;;;;;;;;;;;;;5054692;28;19912;-23
2022/04/10 02:01:22;;;;;;;;;;;;;;;;;;5054799;28;19967;-23
2022/04/10 02:03:52;;;;;;;;;;;;;;;;;;5055050;28;19909;-23
2022/04/10 02:06:18;;;;;;;;;;;;;;;;;;5054719;28;19912;-23
2022/04/10 02:08:47;;;;;;;;;;;;;;;;;;5054890;28;20004;-23
2022/04/10 02:11:15;;;;;;;;;;;;;;;;;;5054675;28;20078;-23
2022/04/10 02:13:42;;;;;;;;;;;;;;;;;;5054599;28;19913;-23
2022/04/10 02:16:08;;;;;;;;;;;;;;;;;;5054761;28;19917;-24
2022/04/10 02:18:36;;;;;;;;;;;;;;;;;;5036917;28;20367;-23
2022/04/10 02:21:04;;;;;;;;;;;;;;;;;;5054570;28;20011;-23
2022/04/10 02:23:32;;;;;;;;;;;;;;;;;;5054529;28;20352;-23
2022/04/10 02:25:59;;;;;;;;;;;;;;;;;;5054450;28;19923;-23
2022/04/10 02:28:27;;;;;;;;;;;;;;;;;;5054267;28;20282;-23
2022/04/10 02:30:54;;;;;;;;;;;;;;;;;;5054468;28;19919;-23
2022/04/10 02:33:24;;;;;;;;;;;;;;;;;;5054432;28;19912;-23
2022/04/10 02:35:54;;;;;;;;;;;;;;;;;;5058701;28;19982;-23
2022/04/10 02:38:21;;;;;;;;;;;;;;;;;;5058443;28;20359;-23
2022/04/10 02:40:48;;;;;;;;;;;;;;;;;;5058611;28;20243;-23
2022/04/10 02:43:16;;;;;;;;;;;;;;;;;;5058445;28;20270;-23
2022/04/10 02:45:43;;;;;;;;;;;;;;;;;;5058437;28;19916;-23
2022/04/10 02:48:11;;;;;;;;;;;;;;;;;;5058542;28;19913;-23
2022/04/10 02:50:38;;;;;;;;;;;;;;;;;;5058278;28;19959;-23
2022/04/10 02:53:05;;;;;;;;;;;;;;;;;;5040626;28;19921;-23
2022/04/10 02:55:33;;;;;;;;;;;;;;;;;;5058399;28;19928;-23
2022/04/10 02:58:03;;;;;;;;;;;;;;;;;;5058053;28;19924;-23
2022/04/10 03:00:30;;;;;;;;;;;;;;;;;;5057978;28;19917;-23
2022/04/10 03:02:57;;;;;;;;;;;;;;;;;;5040346;28;19924;-23
2022/04/10 03:05:24;;;;;;;;;;;;;;;;;;5058089;28;20255;-23
2022/04/10 03:07:51;;;;;;;;;;;;;;;;;;5057749;28;19909;-23
2022/04/10 03:10:19;;;;;;;;;;;;;;;;;;5058060;28;20015;-23
2022/04/10 03:12:45;;;;;;;;;;;;;;;;;;5040053;28;19927;-23
2022/04/10 03:15:12;;;;;;;;;;;;;;;;;;5057881;28;20340;-23
2022/04/10 03:17:38;;;;;;;;;;;;;;;;;;5039847;28;19913;-23
2022/04/10 03:20:06;;;;;;;;;;;;;;;;;;5039989;28;19909;-23
2022/04/10 03:22:33;;;;;;;;;;;;;;;;;;5057570;28;19913;-23
2022/04/10 03:25:01;;;;;;;;;;;;;;;;;;5057510;28;19909;-23
2022/04/10 03:27:28;;;;;;;;;;;;;;;;;;5057398;28;20026;-23
2022/04/10 03:29:55;;;;;;;;;;;;;;;;;;5040484;28;20351;-23
2022/04/10 03:32:22;;;;;;;;;;;;;;;;;;5039687;28;20343;-23
2022/04/10 03:34:51;;;;;;;;;;;;;;;;;;5057481;28;19924;-23
2022/04/10 03:37:18;;;;;;;;;;;;;;;;;;5057109;28;20271;-23
2022/04/10 03:39:45;;;;;;;;;;;;;;;;;;5057172;28;19920;-23
2022/04/10 03:42:11;;;;;;;;;;;;;;;;;;5057061;28;20240;-23
2022/04/10 03:44:39;;;;;;;;;;;;;;;;;;5057326;28;19978;-23
2022/04/10 03:47:06;;;;;;;;;;;;;;;;;;5056377;28;19923;-23
2022/04/10 03:49:33;;;;;;;;;;;;;;;;;;5057263;28;19909;-23
2022/04/10 03:51:59;;;;;;;;;;;;;;;;;;5039429;28;19912;-23
2022/04/10 03:54:27;;;;;;;;;;;;;;;;;;5039261;28;19913;-23
2022/04/10 03:56:54;;;;;;;;;;;;;;;;;;5056983;28;19924;-23
2022/04/10 03:59:24;;;;;;;;;;;;;;;;;;5056892;28;19909;-23
2022/04/10 04:01:51;;;;;;;;;;;;;;;;;;5057120;28;19967;-23
2022/04/10 04:04:20;;;;;;;;;;;;;;;;;;5056785;28;20298;-23
2022/04/10 04:06:47;;;;;;;;;;;;;;;;;;5056727;28;19912;-23
2022/04/10 04:09:14;;;;;;;;;;;;;;;;;;5039030;28;19967;-23
2022/04/10 04:11:41;;;;;;;;;;;;;;;;;;5056960;28;19909;-23
2022/04/10 04:14:08;;;;;;;;;;;;;;;;;;5038791;28;19919;-23
2022/04/10 04:16:35;;;;;;;;;;;;;;;;;;5038942;28;20343;-23
2022/04/10 04:19:02;;;;;;;;;;;;;;;;;;5038908;28;19923;-23
2022/04/10 04:21:29;;;;;;;;;;;;;;;;;;5056662;28;19913;-23
2022/04/10 04:23:56;;;;;;;;;;;;;;;;;;5056497;28;19909;-23
2022/04/10 04:26:23;;;;;;;;;;;;;;;;;;5056605;28;20245;-23
2022/04/10 04:28:52;;;;;;;;;;;;;;;;;;5055954;28;19921;-24
2022/04/10 04:31:20;;;;;;;;;;;;;;;;;;5056502;28;20006;-23
2022/04/10 04:33:50;;;;;;;;;;;;;;;;;;5056237;28;20039;-23
2022/04/10 04:36:19;;;;;;;;;;;;;;;;;;5038421;28;19913;-23
2022/04/10 04:38:49;;;;;;;;;;;;;;;;;;5056162;28;19971;-23
2022/04/10 04:41:18;;;;;;;;;;;;;;;;;;5056116;28;20251;-24
2022/04/10 04:43:45;;;;;;;;;;;;;;;;;;5056369;28;19909;-23
2022/04/10 04:46:15;;;;;;;;;;;;;;;;;;5056015;28;19917;-23
2022/04/10 04:48:42;;;;;;;;;;;;;;;;;;5055812;28;19991;-23
2022/04/10 04:51:09;;;;;;;;;;;;;;;;;;5038159;28;19978;-23
2022/04/10 04:53:36;;;;;;;;;;;;;;;;;;5055773;28;19909;-23
2022/04/10 04:56:04;;;;;;;;;;;;;;;;;;5055746;28;20325;-23
2022/04/10 04:58:33;;;;;;;;;;;;;;;;;;5054758;28;19913;-23
2022/04/10 05:01:00;;;;;;;;;;;;;;;;;;5056051;28;19912;-23
2022/04/10 05:03:26;;;;;;;;;;;;;;;;;;5056154;28;20007;-23
2022/04/10 05:05:53;;;;;;;;;;;;;;;;;;5055852;28;20004;-23
2022/04/10 05:08:21;;;;;;;;;;;;;;;;;;5055416;28;19976;-23
2022/04/10 05:10:49;;;;;;;;;;;;;;;;;;5055754;28;19913;-23
2022/04/10 05:13:18;;;;;;;;;;;;;;;;;;5055541;28;19928;-23
2022/04/10 05:15:44;;;;;;;;;;;;;;;;;;5055363;28;19928;-23
2022/04/10 05:18:13;;;;;;;;;;;;;;;;;;5055558;28;20011;-23
2022/04/10 05:20:41;;;;;;;;;;;;;;;;;;5055305;28;19939;-23
2022/04/10 05:23:09;;;;;;;;;;;;;;;;;;5055265;28;20008;-23
2022/04/10 05:25:37;;;;;;;;;;;;;;;;;;5055269;28;20351;-23
2022/04/10 05:28:04;;;;;;;;;;;;;;;;;;5037242;28;20382;-23
2022/04/10 05:30:34;;;;;;;;;;;;;;;;;;5055400;28;19948;-23
2022/04/10 05:33:01;;;;;;;;;;;;;;;;;;5055078;28;20324;-23
2022/04/10 05:35:33;;;;;;;;;;;;;;;;;;5054964;28;20290;-23
2022/04/10 05:38:00;;;;;;;;;;;;;;;;;;5055285;28;19972;-23
2022/04/10 05:40:30;;;;;;;;;;;;;;;;;;5054911;28;19957;-23
2022/04/10 05:42:58;;;;;;;;;;;;;;;;;;5037387;28;19974;-24
2022/04/10 05:45:25;;;;;;;;;;;;;;;;;;5054887;28;19974;-23
2022/04/10 05:47:54;;;;;;;;;;;;;;;;;;5054811;28;19909;-23
2022/04/10 05:50:22;;;;;;;;;;;;;;;;;;5054815;28;20009;-23
2022/04/10 05:52:51;;;;;;;;;;;;;;;;;;5055046;28;20047;-23
2022/04/10 05:55:20;;;;;;;;;;;;;;;;;;5054713;28;20236;-23
2022/04/10 05:57:47;;;;;;;;;;;;;;;;;;5054644;28;19915;-23
2022/04/10 06:00:14;;;;;;;;;;;;;;;;;;5054604;28;19924;-23
2022/04/10 06:02:41;;;;;;;;;;;;;;;;;;5054672;28;20251;-23
2022/04/10 06:05:11;;;;;;;;;;;;;;;;;;5054590;28;19919;-23
2022/04/10 06:07:41;;;;;;;;;;;;;;;;;;5054483;28;19916;-23
2022/04/10 06:10:25;;;;;;;;;;;;;;;;;;5054212;28;19909;-23
2022/04/10 06:12:56;;;;;;;;;;;;;;;;;;5049059;28;19956;-23
2022/04/10 06:15:22;;;;;;;;;;;;;;;;;;5054428;28;19966;-23
2022/04/10 06:17:48;;;;;;;;;;;;;;;;;;5054420;28;19912;-23
2022/04/10 06:23:05;;;;;;;;;;;;;;;;;;5054558;28;20015;-24
2022/04/10 06:25:32;;;;;;;;;;;;;;;;;;5054603;28;19939;-23
2022/04/10 06:27:58;;;;;;;;;;;;;;;;;;5054514;28;19954;-24
2022/04/10 06:30:27;;;;;;;;;;;;;;;;;;5054585;28;19920;-24
2022/04/10 06:32:53;;;;;;;;;;;;;;;;;;5054267;28;19913;-24
2022/04/10 06:35:19;;;;;;;;;;;;;;;;;;5054203;28;19912;-24
2022/04/10 06:37:45;;;;;;;;;;;;;;;;;;5054081;28;19966;-24
2022/04/10 06:40:11;;;;;;;;;;;;;;;;;;5054250;28;19924;-24
2022/04/10 06:42:39;;;;;;;;;;;;;;;;;;5054444;28;19981;-24
2022/04/10 06:45:05;;;;;;;;;;;;;;;;;;5054189;28;20362;-24
2022/04/10 06:47:31;;;;;;;;;;;;;;;;;;5054035;28;20362;-24
2022/04/10 06:49:59;;;;;;;;;;;;;;;;;;5054091;28;20359;-24
2022/04/10 06:52:28;;;;;;;;;;;;;;;;;;5054086;28;20359;-24
2022/04/10 06:54:54;;;;;;;;;;;;;;;;;;5054218;28;19978;-24
2022/04/10 06:57:22;;;;;;;;;;;;;;;;;;5053997;28;20003;-24
2022/04/10 06:59:48;;;;;;;;;;;;;;;;;;5053969;28;19924;-24
2022/04/10 07:02:14;;;;;;;;;;;;;;;;;;5054249;28;19963;-24
2022/04/10 07:04:40;;;;;;;;;;;;;;;;;;5053929;28;20012;-24
2022/04/10 07:07:07;;;;;;;;;;;;;;;;;;5036304;28;20315;-25
2022/04/10 07:09:34;;;;;;;;;;;;;;;;;;5054191;28;19917;-25
2022/04/10 07:12:00;;;;;;;;;;;;;;;;;;5053956;28;19924;-25
2022/04/10 07:14:27;;;;;;;;;;;;;;;;;;5054164;28;19963;-25
2022/04/10 07:16:53;;;;;;;;;;;;;;;;;;5053842;28;19913;-25
2022/04/10 07:19:19;;;;;;;;;;;;;;;;;;5053892;28;20351;-25
2022/04/10 07:24:30;;;;;;;;;;;;;;;;;;5057928;28;19968;-25
2022/04/10 07:26:57;;;;;;;;;;;;;;;;;;5057682;28;19913;-25
2022/04/10 07:29:23;;;;;;;;;;;;;;;;;;5057366;28;19956;-25
2022/04/10 07:31:49;;;;;;;;;;;;;;;;;;5057526;28;19919;-25
2022/04/10 07:34:17;;;;;;;;;;;;;;;;;;5057888;28;19909;-25
2022/04/10 07:36:43;;;;;;;;;;;;;;;;;;5039831;28;19912;-25
2022/04/10 07:39:10;;;;;;;;;;;;;;;;;;5057513;28;20400;-25
2022/04/10 07:41:36;;;;;;;;;;;;;;;;;;5058049;28;19920;-25
2022/04/10 07:44:03;;;;;;;;;;;;;;;;;;5057261;28;20403;-25
2022/04/10 07:49:13;;;;;;;;;;;;;;;;;;5057409;28;19971;-25
2022/04/10 07:51:42;;;;;;;;;;;;;;;;;;5039489;28;19948;-25
2022/04/10 07:54:11;;;;;;;;;;;;;;;;;;5056996;28;19959;-25
2022/04/10 07:56:37;;;;;;;;;;;;;;;;;;5056822;28;20000;-25
2022/04/10 07:59:04;;;;;;;;;;;;;;;;;;5056905;28;20298;-25
2022/04/10 08:01:30;;;;;;;;;;;;;;;;;;5057182;28;19913;-25
2022/04/10 08:03:56;;;;;;;;;;;;;;;;;;5056910;28;19944;-25
2022/04/10 08:06:24;;;;;;;;;;;;;;;;;;5056697;28;20365;-25
2022/04/10 08:08:50;;;;;;;;;;;;;;;;;;5056712;28;19909;-30
2022/04/10 08:11:16;;;;;;;;;;;;;;;;;;5039106;28;19925;-25
2022/04/10 08:13:43;;;;;;;;;;;;;;;;;;5056705;28;19948;-25
2022/04/10 08:16:09;;;;;;;;;;;;;;;;;;5056637;28;20259;-25
2022/04/10 08:18:36;;;;;;;;;;;;;;;;;;5056845;28;20302;-25
2022/04/10 08:21:03;;;;;;;;;;;;;;;;;;5056524;28;19913;-25
2022/04/10 08:23:29;;;;;;;;;;;;;;;;;;5056548;28;19909;-25
2022/04/10 08:25:55;;;;;;;;;;;;;;;;;;5056724;28;19913;-25
2022/04/10 08:28:21;;;;;;;;;;;;;;;;;;5056136;28;19921;-25
2022/04/10 08:30:47;;;;;;;;;;;;;;;;;;5056571;28;19983;-25
2022/04/10 08:33:13;;;;;;;;;;;;;;;;;;5056096;28;19928;-25
2022/04/10 08:35:39;;;;;;;;;;;;;;;;;;5056456;28;19913;-25
2022/04/10 08:38:05;;;;;;;;;;;;;;;;;;5038547;28;20003;-25
2022/04/10 08:40:31;;;;;;;;;;;;;;;;;;5056208;28;20344;-25
2022/04/10 08:42:57;;;;;;;;;;;;;;;;;;5056475;28;19912;-25
2022/04/10 08:45:24;;;;;;;;;;;;;;;;;;5056447;28;19966;-25
2022/04/10 08:47:50;;;;;;;;;;;;;;;;;;5056342;28;19917;-25
2022/04/10 08:50:17;;;;;;;;;;;;;;;;;;5056130;28;20228;-25
2022/04/10 08:52:43;;;;;;;;;;;;;;;;;;5056093;28;19971;-25
2022/04/10 08:55:09;;;;;;;;;;;;;;;;;;5056228;28;20320;-25
2022/04/10 08:57:35;;;;;;;;;;;;;;;;;;5055901;28;20244;-25
2022/04/10 09:00:01;;;;;;;;;;;;;;;;;;5056184;28;19991;-25
2022/04/10 09:02:27;;;;;;;;;;;;;;;;;;5055906;28;19920;-25
2022/04/10 09:04:53;;;;;;;;;;;;;;;;;;5055743;28;19935;-25
2022/04/10 09:07:20;;;;;;;;;;;;;;;;;;5055687;28;20011;-25
2022/04/10 09:09:48;;;;;;;;;;;;;;;;;;5055999;28;19913;-26
2022/04/10 09:12:17;;;;;;;;;;;;;;;;;;5055581;28;19916;-25
2022/04/10 09:15:01;;;;;;;;;;;;;;;;;;5055600;28;19913;-24
2022/04/10 09:17:30;;;;;;;;;;;;;;;;;;5055798;28;19920;-25
2022/04/10 09:19:57;;;;;;;;;;;;;;;;;;5037830;28;19912;-25
2022/04/10 09:22:23;;;;;;;;;;;;;;;;;;5055527;28;20220;-25
2022/04/10 09:24:49;;;;;;;;;;;;;;;;;;5055429;28;19919;-25
2022/04/10 09:27:15;;;;;;;;;;;;;;;;;;5038491;28;19944;-24
2022/04/10 09:29:41;;;;;;;;;;;;;;;;;;5055276;28;19921;-25
2022/04/10 09:32:07;;;;;;;;;;;;;;;;;;5055239;28;19913;-22
2022/04/10 09:34:33;;;;;;;;;;;;;;;;;;5055092;28;19923;-22
2022/04/10 09:37:00;;;;;;;;;;;;;;;;;;5055619;28;19920;-22
2022/04/10 09:39:26;;;;;;;;;;;;;;;;;;5055164;28;19920;-22
2022/04/10 09:41:52;;;;;;;;;;;;;;;;;;5055316;28;19923;-22
2022/04/10 09:44:21;;;;;;;;;;;;;;;;;;5054525;28;19909;-22
2022/04/10 09:46:47;;;;;;;;;;;;;;;;;;5037335;28;19978;-22
2022/04/10 09:49:14;;;;;;;;;;;;;;;;;;5054949;28;20003;-22
2022/04/10 09:51:40;;;;;;;;;;;;;;;;;;5037370;28;19920;-22
2022/04/10 09:54:06;;;;;;;;;;;;;;;;;;5054954;28;19919;-22
2022/04/10 09:56:32;;;;;;;;;;;;;;;;;;5037196;28;19916;-22
2022/04/10 09:58:58;;;;;;;;;;;;;;;;;;5055017;28;19908;-22
2022/04/10 10:01:24;;;;;;;;;;;;;;;;;;5054821;28;19917;-23
2022/04/10 10:03:50;;;;;;;;;;;;;;;;;;5054703;28;19963;-22
2022/04/10 10:06:16;;;;;;;;;;;;;;;;;;5054714;28;20003;-23
2022/04/10 10:08:42;;;;;;;;;;;;;;;;;;5054594;28;19909;-22
2022/04/10 10:11:08;;;;;;;;;;;;;;;;;;5054873;28;19984;-22
2022/04/10 10:13:34;;;;;;;;;;;;;;;;;;5054875;28;19912;-23
2022/04/10 10:16:00;;;;;;;;;;;;;;;;;;5054577;28;20298;-23
2022/04/10 10:18:26;;;;;;;;;;;;;;;;;;5036978;28;19931;-22
2022/04/10 10:20:52;;;;;;;;;;;;;;;;;;5054845;28;19908;-22
2022/04/10 10:23:19;;;;;;;;;;;;;;;;;;5054546;28;19920;-22
2022/04/10 10:25:45;;;;;;;;;;;;;;;;;;5054544;28;20003;-25
2022/04/10 10:28:11;;;;;;;;;;;;;;;;;;5036456;28;19916;-22
2022/04/10 10:30:37;;;;;;;;;;;;;;;;;;5036762;28;19982;-22
2022/04/10 10:33:03;;;;;;;;;;;;;;;;;;5054470;28;20019;-22
2022/04/10 10:35:29;;;;;;;;;;;;;;;;;;5054503;28;19924;-22
2022/04/10 10:37:55;;;;;;;;;;;;;;;;;;5036524;28;19913;-22
2022/04/10 10:40:21;;;;;;;;;;;;;;;;;;5054243;28;20268;-22
2022/04/10 10:42:48;;;;;;;;;;;;;;;;;;5054237;28;19952;-23
2022/04/10 10:45:14;;;;;;;;;;;;;;;;;;5054430;28;19921;-22
2022/04/10 10:47:40;;;;;;;;;;;;;;;;;;5054174;28;20220;-22
2022/04/10 10:50:06;;;;;;;;;;;;;;;;;;5054224;28;19913;-23
2022/04/10 10:52:32;;;;;;;;;;;;;;;;;;5036589;28;19917;-22
2022/04/10 10:54:58;;;;;;;;;;;;;;;;;;5054138;28;20077;-23
2022/04/10 10:57:24;;;;;;;;;;;;;;;;;;5057340;28;19928;-22
2022/04/10 10:59:50;;;;;;;;;;;;;;;;;;5058056;28;19996;-22
2022/04/10 11:02:17;;;;;;;;;;;;;;;;;;5058010;28;19913;-22
2022/04/10 11:04:43;;;;;;;;;;;;;;;;;;5057952;28;19927;-23
2022/04/10 11:07:10;;;;;;;;;;;;;;;;;;5057802;28;20348;-22
2022/04/10 11:09:37;;;;;;;;;;;;;;;;;;5058083;28;19916;-22
2022/04/10 11:12:05;;;;;;;;;;;;;;;;;;5057749;28;19917;-22
2022/04/10 11:14:33;;;;;;;;;;;;;;;;;;5057942;28;20012;-22
2022/04/10 11:17:01;;;;;;;;;;;;;;;;;;5057678;28;19913;-22
2022/04/10 11:19:29;;;;;;;;;;;;;;;;;;5040076;28;19974;-22
2022/04/10 11:21:56;;;;;;;;;;;;;;;;;;5057579;28;19966;-22
2022/04/10 11:24:26;;;;;;;;;;;;;;;;;;5057880;28;20275;-22
2022/04/10 11:26:56;;;;;;;;;;;;;;;;;;5057389;28;19912;-22
2022/04/10 11:29:23;;;;;;;;;;;;;;;;;;5057300;28;19981;-22
2022/04/10 11:31:51;;;;;;;;;;;;;;;;;;5057938;28;19995;-22
2022/04/10 11:34:19;;;;;;;;;;;;;;;;;;5057276;28;19990;-22
2022/04/10 11:36:46;;;;;;;;;;;;;;;;;;5057403;28;19921;-22
2022/04/10 11:39:16;;;;;;;;;;;;;;;;;;5057444;28;19916;-22
2022/04/10 11:41:47;;;;;;;;;;;;;;;;;;5057692;28;20302;-22
2022/04/10 11:44:15;;;;;;;;;;;;;;;;;;5057168;28;20016;-22
2022/04/10 11:46:42;;;;;;;;;;;;;;;;;;5057414;28;19923;-22
2022/04/10 11:49:11;;;;;;;;;;;;;;;;;;5057117;28;19912;-22
2022/04/10 11:51:38;;;;;;;;;;;;;;;;;;5057168;28;19913;-22
2022/04/10 11:54:06;;;;;;;;;;;;;;;;;;5057109;28;19913;-22
2022/04/10 11:56:33;;;;;;;;;;;;;;;;;;5056926;28;19989;-22
2022/04/10 11:59:02;;;;;;;;;;;;;;;;;;5057061;28;19912;-23
2022/04/10 12:01:29;;;;;;;;;;;;;;;;;;5057033;28;20237;-23
2022/04/10 12:03:57;;;;;;;;;;;;;;;;;;5057236;28;19924;-23
2022/04/10 12:06:27;;;;;;;;;;;;;;;;;;5056423;28;19952;-23
2022/04/10 12:08:56;;;;;;;;;;;;;;;;;;5056842;28;20477;-23
2022/04/10 12:11:25;;;;;;;;;;;;;;;;;;5056781;28;20284;-23
2022/04/10 12:13:54;;;;;;;;;;;;;;;;;;5056857;28;20028;-23
2022/04/10 12:16:23;;;;;;;;;;;;;;;;;;5039116;28;20336;-23
2022/04/10 12:18:51;;;;;;;;;;;;;;;;;;5056608;28;20352;-23
2022/04/10 12:21:19;;;;;;;;;;;;;;;;;;5056969;28;19966;-23
2022/04/10 12:23:51;;;;;;;;;;;;;;;;;;5038773;28;20363;-23
2022/04/10 12:26:20;;;;;;;;;;;;;;;;;;5056569;28;19912;-23
2022/04/10 12:28:48;;;;;;;;;;;;;;;;;;5056316;28;19931;-23
2022/04/10 12:31:17;;;;;;;;;;;;;;;;;;5056503;28;19927;-23
2022/04/10 12:33:46;;;;;;;;;;;;;;;;;;5056730;28;19915;-23
2022/04/10 12:36:13;;;;;;;;;;;;;;;;;;5055262;28;19927;-23
2022/04/10 12:38:40;;;;;;;;;;;;;;;;;;5056140;28;20308;-23
2022/04/10 12:41:08;;;;;;;;;;;;;;;;;;5056106;28;19944;-23
2022/04/10 12:43:36;;;;;;;;;;;;;;;;;;5056525;28;20251;-23
2022/04/10 12:46:05;;;;;;;;;;;;;;;;;;5056147;28;19908;-23
2022/04/10 12:48:33;;;;;;;;;;;;;;;;;;5055939;28;20379;-23
2022/04/10 12:51:00;;;;;;;;;;;;;;;;;;5055956;28;19924;-23
2022/04/10 12:53:27;;;;;;;;;;;;;;;;;;5055908;28;19909;-23
2022/04/10 12:55:56;;;;;;;;;;;;;;;;;;5055837;28;19916;-23
2022/04/10 12:58:25;;;;;;;;;;;;;;;;;;5055818;28;19921;-23
2022/04/10 13:00:53;;;;;;;;;;;;;;;;;;5055814;28;19908;-23
2022/04/10 13:03:21;;;;;;;;;;;;;;;;;;5055925;28;19913;-23
2022/04/10 13:05:47;;;;;;;;;;;;;;;;;;5055574;28;19920;-23
2022/04/10 13:08:13;;;;;;;;;;;;;;;;;;5055564;28;19987;-23
2022/04/10 13:10:40;;;;;;;;;;;;;;;;;;5055506;28;19912;-23
2022/04/10 13:13:07;;;;;;;;;;;;;;;;;;5055536;28;19954;-23
2022/04/10 13:15:35;;;;;;;;;;;;;;;;;;5055669;28;19921;-23
2022/04/10 13:18:02;;;;;;;;;;;;;;;;;;5054920;28;19909;-23
2022/04/10 13:20:28;;;;;;;;;;;;;;;;;;5055063;28;19939;-23
2022/04/10 13:22:55;;;;;;;;;;;;;;;;;;5055423;28;19912;-23
2022/04/10 13:25:23;;;;;;;;;;;;;;;;;;5055545;28;19935;-23
2022/04/10 13:27:50;;;;;;;;;;;;;;;;;;5054976;28;20025;-23
2022/04/10 13:30:19;;;;;;;;;;;;;;;;;;5037597;28;19917;-23
2022/04/10 13:32:56;;;;;;;;;;;;;;;;;;5054665;28;20685;-23
2022/04/10 13:35:23;;;;;;;;;;;;;;;;;;5037361;28;19927;-23
2022/04/10 13:37:50;;;;;;;;;;;;;;;;;;5055234;28;19913;-23
2022/04/10 13:40:17;;;;;;;;;;;;;;;;;;5054922;28;19956;-25
2022/04/10 13:42:45;;;;;;;;;;;;;;;;;;5055002;28;19912;-26
2022/04/10 13:45:14;;;;;;;;;;;;;;;;;;5055013;28;19966;-26
2022/04/10 13:47:43;;;;;;;;;;;;;;;;;;5055150;28;19978;-25
2022/04/10 13:50:12;;;;;;;;;;;;;;;;;;5055137;28;19992;-28
2022/04/10 13:52:41;;;;;;;;;;;;;;;;;;5054902;28;19916;-30
2022/04/10 13:55:08;;;;;;;;;;;;;;;;;;5055037;28;19975;-26
2022/04/10 13:57:35;;;;;;;;;;;;;;;;;;5054677;28;19948;-26
2022/04/10 14:00:02;;;;;;;;;;;;;;;;;;5054809;28;19912;-29
2022/04/10 14:02:29;;;;;;;;;;;;;;;;;;5054758;28;20000;-26
2022/04/10 14:04:58;;;;;;;;;;;;;;;;;;5054851;28;20011;-28
2022/04/10 14:07:25;;;;;;;;;;;;;;;;;;5054636;28;19916;-31
2022/04/10 14:09:52;;;;;;;;;;;;;;;;;;5054942;28;19919;-28
2022/04/10 14:12:19;;;;;;;;;;;;;;;;;;5054612;28;19913;-27
2022/04/10 14:14:46;;;;;;;;;;;;;;;;;;5054823;28;19952;-29
2022/04/10 14:17:13;;;;;;;;;;;;;;;;;;5054556;28;20392;-25
2022/04/10 14:19:41;;;;;;;;;;;;;;;;;;5054543;28;19913;-30
2022/04/10 14:22:08;;;;;;;;;;;;;;;;;;5054782;28;20236;-31
2022/04/10 14:24:36;;;;;;;;;;;;;;;;;;5054476;28;20011;-26
2022/04/10 14:27:07;;;;;;;;;;;;;;;;;;5054353;28;19920;-32
2022/04/10 14:29:37;;;;;;;;;;;;;;;;;;5054701;28;19974;-31
2022/04/10 14:32:04;;;;;;;;;;;;;;;;;;5058881;28;19928;-27
2022/04/10 14:34:32;;;;;;;;;;;;;;;;;;5058595;28;19916;-27
2022/04/10 14:36:58;;;;;;;;;;;;;;;;;;5058458;28;20358;-33
2022/04/10 14:39:26;;;;;;;;;;;;;;;;;;5058720;28;19909;-32
2022/04/10 14:41:53;;;;;;;;;;;;;;;;;;5058419;28;19920;-32
2022/04/10 14:44:21;;;;;;;;;;;;;;;;;;5058663;28;19917;-31
2022/04/10 14:46:48;;;;;;;;;;;;;;;;;;5058269;28;19913;-27
2022/04/10 14:49:15;;;;;;;;;;;;;;;;;;5058662;28;19924;-31
2022/04/10 14:51:42;;;;;;;;;;;;;;;;;;5058311;28;20348;-27
2022/04/10 14:54:09;;;;;;;;;;;;;;;;;;5058274;28;20302;-29
2022/04/10 14:56:35;;;;;;;;;;;;;;;;;;5058150;28;19917;-30
2022/04/10 14:59:02;;;;;;;;;;;;;;;;;;5058111;28;19908;-27
2022/04/10 15:01:30;;;;;;;;;;;;;;;;;;5058102;28;19913;-25
2022/04/10 15:03:59;;;;;;;;;;;;;;;;;;5058080;28;19909;-29
2022/04/10 15:06:26;;;;;;;;;;;;;;;;;;5058163;28;19916;-25
2022/04/10 15:08:55;;;;;;;;;;;;;;;;;;5057807;28;20382;-26
2022/04/10 15:11:23;;;;;;;;;;;;;;;;;;5057839;28;19920;-26
2022/04/10 15:13:52;;;;;;;;;;;;;;;;;;5057882;28;19909;-31
2022/04/10 15:16:19;;;;;;;;;;;;;;;;;;5058014;28;20062;-26
2022/04/10 15:18:47;;;;;;;;;;;;;;;;;;5057691;28;19959;-27
2022/04/10 15:21:15;;;;;;;;;;;;;;;;;;5057907;28;20023;-29
2022/04/10 15:23:45;;;;;;;;;;;;;;;;;;5057513;28;19920;-26
2022/04/10 15:26:14;;;;;;;;;;;;;;;;;;5057645;28;19913;-27
2022/04/10 15:28:42;;;;;;;;;;;;;;;;;;5057197;28;19921;-28
2022/04/10 15:31:09;;;;;;;;;;;;;;;;;;5057767;28;19923;-26
2022/04/10 15:33:36;;;;;;;;;;;;;;;;;;5057426;28;19952;-30
2022/04/10 15:36:04;;;;;;;;;;;;;;;;;;5057357;28;19923;-28
2022/04/10 15:38:35;;;;;;;;;;;;;;;;;;5057403;28;19982;-32
2022/04/10 15:41:03;;;;;;;;;;;;;;;;;;5057468;28;19965;-27
2022/04/10 15:43:32;;;;;;;;;;;;;;;;;;5056751;28;19915;-24
2022/04/10 15:46:03;;;;;;;;;;;;;;;;;;5057216;28;19924;-28
2022/04/10 15:48:31;;;;;;;;;;;;;;;;;;5057148;28;19912;-29
2022/04/10 15:51:00;;;;;;;;;;;;;;;;;;5057227;28;19980;-32
2022/04/10 15:53:30;;;;;;;;;;;;;;;;;;5057152;28;19908;-35
2022/04/10 15:55:57;;;;;;;;;;;;;;;;;;5057098;28;20065;-29
2022/04/10 15:58:25;;;;;;;;;;;;;;;;;;5056938;28;20410;-27
2022/04/10 16:00:53;;;;;;;;;;;;;;;;;;5057108;28;19924;-29
2022/04/10 16:03:25;;;;;;;;;;;;;;;;;;5057428;28;19986;-28
2022/04/10 16:05:52;;;;;;;;;;;;;;;;;;5057307;28;19917;-28
2022/04/10 16:08:19;;;;;;;;;;;;;;;;;;5056905;28;20047;-29
2022/04/10 16:10:46;;;;;;;;;;;;;;;;;;5056893;28;19913;-26
2022/04/10 16:13:13;;;;;;;;;;;;;;;;;;5056815;28;19909;-29
2022/04/10 16:15:42;;;;;;;;;;;;;;;;;;5056997;28;19924;-24
2022/04/10 16:18:10;;;;;;;;;;;;;;;;;;5056604;28;19924;-28
2022/04/10 16:20:51;;;;;;;;;;;;;;;;;;5056638;28;20397;-25
2022/04/10 16:23:27;;;;;;;;;;;;;;;;;;5056876;28;19912;-29
2022/04/10 16:25:56;;;;;;;;;;;;;;;;;;5038534;28;20395;-28
2022/04/10 16:31:09;;;;;;;;;;;;;;;;;;5056544;28;20254;-27
2022/04/10 16:34:16;;;;;;;;;;;;;;;;;;5056620;28;19924;-25
2022/04/10 16:36:23;;;;;;;;;;;;;;;;;;5056049;28;20255;-31
2022/04/10 16:38:50;;;;;;;;;;;;;;;;;;5056393;28;19965;-31
2022/04/10 16:41:18;;;;;;;;;;;;;;;;;;5056339;28;19938;-27
2022/04/10 16:43:46;;;;;;;;;;;;;;;;;;5056586;28;19913;-26
2022/04/10 16:46:13;;;;;;;;;;;;;;;;;;5056195;28;19927;-29
2022/04/10 16:48:40;;;;;;;;;;;;;;;;;;5055880;28;19935;-28
2022/04/10 16:51:08;;;;;;;;;;;;;;;;;;5056091;28;19913;-27
2022/04/10 16:53:38;;;;;;;;;;;;;;;;;;5056265;28;19913;-25
2022/04/10 16:56:05;;;;;;;;;;;;;;;;;;5055899;28;19931;-28
2022/04/10 16:58:33;;;;;;;;;;;;;;;;;;5056108;28;20248;-24